createdAt,value
2018-06-28T00:00:16.192Z,54.85
2018-06-28T00:01:22.527Z,55.55
2018-06-28T00:02:28.876Z,54.95
2018-06-28T00:03:35.294Z,54.85
2018-06-28T00:04:41.288Z,55.17
2018-06-28T00:05:47.360Z,55.20
2018-06-28T00:06:53.386Z,55.06
2018-06-28T00:07:59.791Z,55.82
2018-06-28T00:09:09.465Z,56.00
2018-06-28T00:10:15.794Z,55.62
2018-06-28T00:11:21.363Z,55.86
2018-06-28T00:12:27.309Z,55.38
2018-06-28T00:13:33.341Z,55.71
2018-06-28T00:14:39.349Z,55.97
2018-06-28T00:15:45.330Z,56.25
2018-06-28T00:16:51.365Z,56.35
2018-06-28T00:17:57.364Z,56.68
2018-06-28T00:19:03.369Z,56.56
2018-06-28T00:20:09.353Z,56.98
2018-06-28T00:21:15.364Z,57.14
2018-06-28T00:22:21.335Z,56.52
2018-06-28T00:23:27.546Z,56.87
2018-06-28T00:24:33.745Z,56.93
2018-06-28T00:25:39.703Z,57.13
2018-06-28T00:26:45.922Z,57.56
2018-06-28T00:27:51.923Z,57.97
2018-06-28T00:28:57.896Z,58.14
2018-06-28T00:30:04.367Z,57.81
2018-06-28T00:31:10.443Z,58.35
2018-06-28T00:32:16.552Z,57.74
2018-06-28T00:33:22.522Z,58.46
2018-06-28T00:34:28.563Z,58.00
2018-06-28T00:35:34.641Z,58.11
2018-06-28T00:36:40.640Z,58.43
2018-06-28T00:37:46.619Z,58.32
2018-06-28T00:38:52.647Z,59.22
2018-06-28T00:39:58.141Z,59.14
2018-06-28T00:41:04.079Z,59.04
2018-06-28T00:42:10.339Z,58.73
2018-06-28T00:43:16.819Z,59.21
2018-06-28T00:44:22.806Z,59.12
2018-06-28T00:45:28.613Z,59.26
2018-06-28T00:46:34.707Z,59.88
2018-06-28T00:47:40.883Z,60.17
2018-06-28T00:48:46.901Z,60.08
2018-06-28T00:49:52.880Z,60.14
2018-06-28T00:50:58.870Z,60.36
2018-06-28T00:52:04.901Z,59.92
2018-06-28T00:53:10.989Z,60.32
2018-06-28T00:54:17.026Z,61.02
2018-06-28T00:55:23.470Z,60.27
2018-06-28T00:56:29.825Z,60.51
2018-06-28T00:57:35.847Z,60.69
2018-06-28T00:58:42.253Z,60.74
2018-06-28T00:59:48.022Z,60.95
2018-06-28T01:00:54.026Z,60.99
2018-06-28T01:02:00.025Z,61.87
2018-06-28T01:03:06.104Z,61.99
2018-06-28T01:04:12.131Z,62.34
2018-06-28T01:05:18.594Z,62.33
2018-06-28T01:06:24.689Z,62.42
2018-06-28T01:07:30.679Z,61.77
2018-06-28T01:08:36.699Z,61.91
2018-06-28T01:09:42.748Z,62.71
2018-06-28T01:10:48.764Z,62.97
2018-06-28T01:11:54.796Z,62.34
2018-06-28T01:13:01.135Z,62.64
2018-06-28T01:14:07.257Z,62.67
2018-06-28T01:15:13.277Z,62.72
2018-06-28T01:16:19.630Z,63.29
2018-06-28T01:17:25.631Z,62.95
2018-06-28T01:18:31.625Z,63.60
2018-06-28T01:19:37.369Z,63.25
2018-06-28T01:20:43.520Z,63.31
2018-06-28T01:21:49.417Z,63.52
2018-06-28T01:22:55.339Z,63.48
2018-06-28T01:24:01.334Z,64.37
2018-06-28T01:25:07.413Z,63.71
2018-06-28T01:26:13.390Z,64.45
2018-06-28T01:27:19.376Z,64.47
2018-06-28T01:28:25.349Z,63.94
2018-06-28T01:29:30.996Z,63.95
2018-06-28T01:30:37.036Z,63.84
2018-06-28T01:32:47.840Z,64.25
2018-06-28T01:33:53.836Z,64.67
2018-06-28T01:35:00.180Z,65.13
2018-06-28T01:36:06.672Z,64.82
2018-06-28T01:37:12.691Z,64.96
2018-06-28T01:38:18.691Z,65.16
2018-06-28T01:39:25.050Z,64.87
2018-06-28T01:40:31.440Z,65.31
2018-06-28T01:43:10.748Z,65.31
2018-06-28T01:44:16.866Z,65.53
2018-06-28T01:45:22.840Z,65.39
2018-06-28T01:46:28.839Z,65.87
2018-06-28T01:47:34.874Z,65.24
2018-06-28T01:48:40.963Z,65.82
2018-06-28T01:49:47.016Z,65.30
2018-06-28T01:50:52.996Z,65.78
2018-06-28T01:51:59.001Z,65.79
2018-06-28T01:53:05.388Z,65.68
2018-06-28T01:54:11.591Z,66.34
2018-06-28T01:55:17.335Z,65.86
2018-06-28T01:56:23.215Z,66.45
2018-06-28T01:57:29.236Z,65.66
2018-06-28T01:58:34.918Z,66.24
2018-06-28T01:59:40.914Z,66.07
2018-06-28T02:00:47.079Z,66.08
2018-06-28T02:01:53.455Z,66.65
2018-06-28T02:02:59.417Z,66.37
2018-06-28T02:04:05.608Z,66.17
2018-06-28T02:05:11.576Z,66.71
2018-06-28T02:06:17.817Z,66.39
2018-06-28T02:07:23.950Z,66.29
2018-06-28T02:08:29.928Z,66.95
2018-06-28T02:09:35.947Z,66.42
2018-06-28T02:10:42.051Z,67.05
2018-06-28T02:11:48.045Z,66.80
2018-06-28T02:12:54.062Z,66.58
2018-06-28T02:14:00.120Z,67.46
2018-06-28T02:15:07.063Z,67.20
2018-06-28T02:16:13.081Z,66.90
2018-06-28T02:17:19.343Z,67.00
2018-06-28T02:18:25.324Z,66.98
2018-06-28T02:19:31.340Z,67.58
2018-06-28T02:20:37.902Z,67.72
2018-06-28T02:21:44.040Z,67.76
2018-06-28T02:22:50.036Z,67.42
2018-06-28T02:23:56.028Z,67.97
2018-06-28T02:25:02.076Z,67.86
2018-06-28T02:26:08.126Z,67.74
2018-06-28T02:27:14.307Z,67.31
2018-06-28T02:28:20.312Z,67.09
2018-06-28T02:29:26.443Z,67.48
2018-06-28T02:30:32.464Z,67.45
2018-06-28T02:31:38.458Z,67.75
2018-06-28T02:32:44.427Z,67.36
2018-06-28T02:33:50.527Z,67.70
2018-06-28T02:34:56.589Z,67.32
2018-06-28T02:36:02.539Z,67.47
2018-06-28T02:37:08.529Z,67.68
2018-06-28T02:38:14.504Z,67.96
2018-06-28T02:39:20.501Z,67.46
2018-06-28T02:40:26.135Z,67.71
2018-06-28T02:41:32.022Z,67.90
2018-06-28T02:42:38.407Z,67.35
2018-06-28T02:43:44.403Z,67.24
2018-06-28T02:44:50.369Z,67.93
2018-06-28T02:45:56.374Z,67.45
2018-06-28T02:47:01.997Z,68.13
2018-06-28T02:48:08.014Z,67.77
2018-06-28T02:49:14.322Z,67.52
2018-06-28T02:50:20.072Z,68.25
2018-06-28T02:51:26.023Z,67.75
2018-06-28T02:52:32.010Z,68.11
2018-06-28T02:53:38.012Z,68.49
2018-06-28T02:54:44.128Z,67.89
2018-06-28T02:55:50.161Z,68.04
2018-06-28T02:56:56.540Z,68.00
2018-06-28T02:58:02.583Z,68.01
2018-06-28T02:59:08.627Z,67.93
2018-06-28T03:00:14.952Z,68.48
2018-06-28T03:01:20.915Z,68.36
2018-06-28T03:02:26.882Z,67.68
2018-06-28T03:03:33.332Z,67.58
2018-06-28T03:04:39.596Z,68.31
2018-06-28T03:05:45.231Z,68.06
2018-06-28T03:06:51.141Z,67.98
2018-06-28T03:07:57.067Z,68.01
2018-06-28T03:09:03.147Z,67.22
2018-06-28T03:10:09.166Z,67.68
2018-06-28T03:11:15.139Z,67.44
2018-06-28T03:12:21.234Z,67.03
2018-06-28T03:13:27.180Z,67.13
2018-06-28T03:14:33.153Z,66.93
2018-06-28T03:15:39.135Z,67.26
2018-06-28T03:16:45.172Z,66.73
2018-06-28T03:17:51.168Z,66.57
2018-06-28T03:18:57.190Z,66.57
2018-06-28T03:20:03.456Z,66.43
2018-06-28T03:21:09.906Z,66.04
2018-06-28T03:22:16.154Z,66.07
2018-06-28T03:23:22.143Z,66.30
2018-06-28T03:24:28.270Z,66.19
2018-06-28T03:25:34.250Z,66.53
2018-06-28T03:26:40.437Z,66.68
2018-06-28T03:27:46.452Z,66.24
2018-06-28T03:28:52.479Z,66.44
2018-06-28T03:29:58.644Z,66.72
2018-06-28T03:31:05.011Z,66.68
2018-06-28T03:32:11.226Z,66.09
2018-06-28T03:33:16.995Z,66.20
2018-06-28T03:34:22.986Z,66.13
2018-06-28T03:35:29.376Z,66.81
2018-06-28T03:36:35.360Z,66.34
2018-06-28T03:37:41.434Z,66.80
2018-06-28T03:38:47.639Z,66.53
2018-06-28T03:39:53.607Z,66.57
2018-06-28T03:40:59.693Z,66.33
2018-06-28T03:42:05.860Z,66.48
2018-06-28T03:43:11.654Z,66.46
2018-06-28T03:44:17.673Z,66.94
2018-06-28T03:45:23.679Z,67.17
2018-06-28T03:46:29.659Z,66.94
2018-06-28T03:47:35.635Z,67.31
2018-06-28T03:48:44.771Z,66.67
2018-06-28T03:49:50.787Z,67.69
2018-06-28T03:50:59.169Z,67.16
2018-06-28T03:52:05.933Z,67.07
2018-06-28T03:53:13.488Z,67.25
2018-06-28T03:54:19.517Z,67.44
2018-06-28T03:55:27.787Z,67.96
2018-06-28T03:56:33.918Z,67.40
2018-06-28T03:57:39.913Z,67.46
2018-06-28T03:58:46.623Z,67.64
2018-06-28T03:59:52.930Z,67.60
2018-06-28T04:00:59.734Z,68.04
2018-06-28T04:02:06.367Z,68.18
2018-06-28T04:03:13.354Z,68.23
2018-06-28T04:04:19.850Z,67.75
2018-06-28T04:05:26.373Z,68.53
2018-06-28T04:06:32.687Z,68.05
2018-06-28T04:07:38.915Z,68.56
2018-06-28T04:08:45.014Z,68.73
2018-06-28T04:09:51.023Z,68.35
2018-06-28T04:10:57.023Z,68.05
2018-06-28T04:12:02.999Z,68.51
2018-06-28T04:13:09.012Z,68.23
2018-06-28T04:14:15.499Z,68.62
2018-06-28T04:15:21.125Z,68.06
2018-06-28T04:16:27.050Z,68.76
2018-06-28T04:17:33.003Z,68.34
2018-06-28T04:18:39.004Z,68.58
2018-06-28T04:19:45.005Z,68.33
2018-06-28T04:20:50.986Z,68.71
2018-06-28T04:21:56.984Z,68.20
2018-06-28T04:23:02.972Z,68.50
2018-06-28T04:24:08.969Z,68.22
2018-06-28T04:25:14.923Z,68.86
2018-06-28T04:26:21.014Z,68.18
2018-06-28T04:27:27.653Z,68.00
2018-06-28T04:28:34.139Z,68.71
2018-06-28T04:29:40.112Z,68.42
2018-06-28T04:30:46.103Z,68.50
2018-06-28T04:31:52.114Z,68.49
2018-06-28T04:32:58.121Z,68.23
2018-06-28T04:34:04.105Z,68.48
2018-06-28T04:35:10.141Z,67.85
2018-06-28T04:36:16.161Z,68.27
2018-06-28T04:37:22.207Z,68.29
2018-06-28T04:38:28.224Z,67.66
2018-06-28T04:39:34.245Z,68.02
2018-06-28T04:40:40.293Z,67.99
2018-06-28T04:41:46.266Z,68.19
2018-06-28T04:42:52.253Z,67.78
2018-06-28T04:43:58.274Z,67.56
2018-06-28T04:45:04.314Z,67.37
2018-06-28T04:46:10.324Z,67.27
2018-06-28T04:47:16.371Z,67.89
2018-06-28T04:48:22.457Z,67.26
2018-06-28T04:49:28.563Z,67.84
2018-06-28T04:50:34.558Z,67.73
2018-06-28T04:51:40.560Z,67.20
2018-06-28T04:52:46.552Z,67.30
2018-06-28T04:53:52.749Z,67.00
2018-06-28T04:54:59.109Z,67.07
2018-06-28T04:56:05.680Z,67.87
2018-06-28T04:57:11.635Z,67.49
2018-06-28T04:58:17.720Z,66.98
2018-06-28T04:59:23.354Z,67.46
2018-06-28T05:00:29.255Z,66.82
2018-06-28T05:01:35.266Z,66.84
2018-06-28T05:02:41.236Z,67.09
2018-06-28T05:03:47.200Z,67.05
2018-06-28T05:04:53.330Z,66.71
2018-06-28T05:05:59.378Z,66.89
2018-06-28T05:07:05.732Z,66.46
2018-06-28T05:08:11.809Z,66.13
2018-06-28T05:09:17.867Z,66.60
2018-06-28T05:10:23.917Z,66.20
2018-06-28T05:11:29.901Z,66.36
2018-06-28T05:12:35.860Z,65.50
2018-06-28T05:13:41.905Z,65.35
2018-06-28T05:14:47.602Z,65.13
2018-06-28T05:15:53.491Z,66.12
2018-06-28T05:16:59.516Z,65.03
2018-06-28T05:18:06.413Z,65.17
2018-06-28T05:19:12.371Z,64.83
2018-06-28T05:20:18.327Z,64.85
2018-06-28T05:21:24.344Z,65.24
2018-06-28T05:22:30.722Z,64.94
2018-06-28T05:23:36.656Z,64.91
2018-06-28T05:24:42.591Z,64.50
2018-06-28T05:25:48.341Z,64.53
2018-06-28T05:26:54.188Z,64.12
2018-06-28T05:28:00.595Z,64.25
2018-06-28T05:29:06.734Z,63.46
2018-06-28T05:30:12.899Z,63.75
2018-06-28T05:31:18.926Z,63.91
2018-06-28T05:32:25.040Z,63.10
2018-06-28T05:33:30.681Z,62.96
2018-06-28T05:34:36.663Z,62.71
2018-06-28T05:35:49.295Z,62.80
2018-06-28T05:36:55.374Z,62.96
2018-06-28T05:38:01.333Z,62.61
2018-06-28T05:39:10.995Z,62.81
2018-06-28T05:40:17.040Z,61.89
2018-06-28T05:41:23.192Z,62.46
2018-06-28T05:42:29.164Z,61.57
2018-06-28T05:43:35.119Z,61.33
2018-06-28T05:44:41.552Z,61.15
2018-06-28T05:45:47.507Z,61.59
2018-06-28T05:46:53.666Z,61.34
2018-06-28T05:47:59.752Z,61.18
2018-06-28T05:49:05.750Z,60.50
2018-06-28T05:50:11.818Z,60.73
2018-06-28T05:51:17.952Z,60.47
2018-06-28T05:52:24.303Z,61.07
2018-06-28T05:53:30.259Z,60.44
2018-06-28T05:54:36.231Z,60.92
2018-06-28T05:55:42.303Z,59.76
2018-06-28T05:56:48.320Z,59.59
2018-06-28T05:57:54.267Z,58.35
2018-06-28T05:59:00.231Z,57.17
2018-06-28T06:00:07.232Z,55.73
2018-06-28T06:01:13.287Z,53.17
2018-06-28T06:02:19.381Z,53.33
2018-06-28T06:03:25.331Z,52.84
2018-06-28T06:04:31.318Z,52.65
2018-06-28T06:05:37.308Z,51.24
2018-06-28T06:06:43.354Z,49.83
2018-06-28T06:07:49.328Z,49.30
2018-06-28T06:08:55.327Z,47.98
2018-06-28T06:10:01.333Z,47.64
2018-06-28T06:11:07.527Z,46.09
2018-06-28T06:12:13.516Z,44.31
2018-06-28T06:13:19.107Z,43.42
2018-06-28T06:14:24.992Z,43.13
2018-06-28T06:15:30.626Z,43.74
2018-06-28T06:16:37.204Z,43.06
2018-06-28T06:17:43.238Z,42.62
2018-06-28T06:18:49.550Z,42.30
2018-06-28T06:19:55.492Z,42.09
2018-06-28T06:21:01.469Z,41.53
2018-06-28T06:22:07.480Z,41.46
2018-06-28T06:23:13.434Z,40.96
2018-06-28T06:24:19.411Z,41.02
2018-06-28T06:25:25.345Z,40.01
2018-06-28T06:26:31.279Z,40.61
2018-06-28T06:27:37.218Z,38.83
2018-06-28T06:28:43.193Z,38.97
2018-06-28T06:29:49.204Z,38.68
2018-06-28T06:30:55.692Z,38.40
2018-06-28T06:32:01.791Z,38.84
2018-06-28T06:33:07.766Z,38.81
2018-06-28T06:34:13.734Z,38.32
2018-06-28T06:35:19.691Z,37.70
2018-06-28T06:36:25.703Z,37.34
2018-06-28T06:37:31.930Z,37.11
2018-06-28T06:38:38.726Z,36.86
2018-06-28T06:39:45.247Z,36.46
2018-06-28T06:40:51.292Z,35.77
2018-06-28T06:41:57.248Z,36.71
2018-06-28T06:43:03.226Z,35.93
2018-06-28T06:44:09.214Z,35.83
2018-06-28T06:45:15.280Z,35.96
2018-06-28T06:46:21.562Z,35.24
2018-06-28T06:47:27.631Z,34.97
2018-06-28T06:48:34.003Z,35.50
2018-06-28T06:49:40.150Z,35.21
2018-06-28T06:50:46.219Z,34.43
2018-06-28T06:51:52.287Z,35.53
2018-06-28T06:52:58.670Z,35.48
2018-06-28T06:54:04.714Z,34.67
2018-06-28T06:55:10.714Z,34.87
2018-06-28T06:56:16.773Z,34.47
2018-06-28T06:57:22.397Z,33.78
2018-06-28T06:58:28.276Z,34.13
2018-06-28T06:59:34.279Z,33.33
2018-06-28T07:00:40.284Z,33.06
2018-06-28T07:01:46.372Z,32.31
2018-06-28T07:02:52.379Z,31.88
2018-06-28T07:03:58.406Z,31.79
2018-06-28T07:05:04.589Z,31.70
2018-06-28T07:06:10.590Z,31.29
2018-06-28T07:07:16.629Z,31.64
2018-06-28T07:08:23.359Z,30.83
2018-06-28T07:09:29.346Z,30.70
2018-06-28T07:10:35.131Z,30.71
2018-06-28T07:11:41.456Z,29.69
2018-06-28T07:12:47.483Z,29.79
2018-06-28T07:13:53.469Z,29.04
2018-06-28T07:14:59.434Z,29.07
2018-06-28T07:16:06.151Z,28.98
2018-06-28T07:17:12.175Z,29.05
2018-06-28T07:18:18.264Z,29.32
2018-06-28T07:19:24.208Z,28.93
2018-06-28T07:20:30.203Z,30.57
2018-06-28T07:21:36.451Z,30.87
2018-06-28T07:22:42.503Z,31.69
2018-06-28T07:23:48.840Z,32.13
2018-06-28T07:24:54.801Z,32.63
2018-06-28T07:26:00.793Z,31.90
2018-06-28T07:27:06.434Z,32.45
2018-06-28T07:28:12.278Z,32.64
2018-06-28T07:29:18.488Z,32.63
2018-06-28T07:30:24.201Z,33.09
2018-06-28T07:31:30.051Z,32.84
2018-06-28T07:32:36.088Z,33.13
2018-06-28T07:33:42.236Z,32.11
2018-06-28T07:34:48.273Z,31.38
2018-06-28T07:35:54.435Z,30.70
2018-06-28T07:37:00.473Z,30.42
2018-06-28T07:38:06.778Z,29.45
2018-06-28T07:39:13.821Z,29.33
2018-06-28T07:40:20.367Z,29.14
2018-06-28T07:41:26.365Z,29.33
2018-06-28T07:42:32.326Z,29.64
2018-06-28T07:43:38.312Z,29.40
2018-06-28T07:44:44.259Z,28.94
2018-06-28T07:45:50.321Z,28.76
2018-06-28T07:46:56.347Z,29.05
2018-06-28T07:48:02.471Z,29.00
2018-06-28T07:49:08.907Z,28.72
2018-06-28T07:50:15.019Z,27.96
2018-06-28T07:51:21.052Z,28.31
2018-06-28T07:52:27.016Z,28.35
2018-06-28T07:53:34.457Z,27.72
2018-06-28T07:54:40.449Z,28.22
2018-06-28T07:55:46.978Z,27.86
2018-06-28T07:56:53.047Z,28.27
2018-06-28T07:57:59.987Z,27.53
2018-06-28T07:59:05.694Z,27.70
2018-06-28T08:00:11.576Z,28.09
2018-06-28T08:01:17.299Z,27.92
2018-06-28T08:02:23.207Z,28.53
2018-06-28T08:03:29.185Z,28.55
2018-06-28T08:04:35.135Z,28.65
2018-06-28T08:05:41.095Z,28.37
2018-06-28T08:06:47.155Z,28.70
2018-06-28T08:07:53.127Z,27.47
2018-06-28T08:08:59.115Z,27.40
2018-06-28T08:10:05.189Z,27.11
2018-06-28T08:11:11.244Z,27.85
2018-06-28T08:12:17.222Z,27.19
2018-06-28T08:13:23.385Z,27.08
2018-06-28T08:14:29.372Z,26.98
2018-06-28T08:15:35.376Z,27.32
2018-06-28T08:16:41.310Z,26.85
2018-06-28T08:17:47.439Z,26.99
2018-06-28T08:18:53.566Z,27.19
2018-06-28T08:19:59.563Z,27.25
2018-06-28T08:21:05.622Z,27.50
2018-06-28T08:22:11.600Z,26.77
2018-06-28T08:23:17.543Z,26.76
2018-06-28T08:24:23.350Z,26.91
2018-06-28T08:25:29.244Z,26.86
2018-06-28T08:26:34.927Z,26.02
2018-06-28T08:27:40.857Z,26.36
2018-06-28T08:28:46.816Z,26.00
2018-06-28T08:29:53.115Z,26.98
2018-06-28T08:30:59.167Z,26.32
2018-06-28T08:32:05.220Z,26.22
2018-06-28T08:33:11.312Z,26.44
2018-06-28T08:34:17.326Z,25.80
2018-06-28T08:35:23.420Z,25.99
2018-06-28T08:36:29.848Z,26.44
2018-06-28T08:37:36.146Z,26.46
2018-06-28T08:38:42.131Z,26.57
2018-06-28T08:39:47.742Z,25.96
2018-06-28T08:40:53.741Z,26.34
2018-06-28T08:41:59.879Z,26.10
2018-06-28T08:43:05.832Z,26.12
2018-06-28T08:44:11.860Z,26.31
2018-06-28T08:45:17.849Z,25.56
2018-06-28T08:46:23.928Z,26.10
2018-06-28T08:47:29.955Z,26.09
2018-06-28T08:48:35.956Z,26.59
2018-06-28T08:49:41.923Z,27.17
2018-06-28T08:50:48.017Z,27.05
2018-06-28T08:51:53.999Z,26.51
2018-06-28T08:52:59.972Z,25.66
2018-06-28T08:54:06.380Z,25.68
2018-06-28T08:55:12.359Z,25.28
2018-06-28T08:56:18.316Z,25.65
2018-06-28T08:57:24.331Z,24.80
2018-06-28T08:58:30.383Z,25.03
2018-06-28T08:59:36.014Z,24.58
2018-06-28T09:00:41.937Z,23.93
2018-06-28T09:01:51.020Z,24.45
2018-06-28T09:02:57.183Z,23.68
2018-06-28T09:04:03.442Z,23.45
2018-06-28T09:05:09.456Z,23.46
2018-06-28T09:06:15.453Z,23.19
2018-06-28T09:07:21.468Z,23.30
2018-06-28T09:08:27.706Z,22.47
2018-06-28T09:09:33.634Z,22.92
2018-06-28T09:10:39.392Z,22.21
2018-06-28T09:11:45.724Z,22.00
2018-06-28T09:12:51.839Z,22.35
2018-06-28T09:13:57.242Z,22.34
2018-06-28T09:15:02.901Z,22.18
2018-06-28T09:16:08.939Z,22.27
2018-06-28T09:17:14.708Z,22.27
2018-06-28T09:18:20.417Z,22.18
2018-06-28T09:19:26.180Z,22.95
2018-06-28T09:20:31.886Z,22.54
2018-06-28T09:21:37.694Z,22.25
2018-06-28T09:22:44.235Z,21.83
2018-06-28T09:23:50.700Z,21.73
2018-06-28T09:24:56.772Z,22.32
2018-06-28T09:26:02.754Z,23.06
2018-06-28T09:27:08.888Z,23.52
2018-06-28T09:28:14.836Z,23.51
2018-06-28T09:29:20.939Z,23.36
2018-06-28T09:30:26.944Z,23.49
2018-06-28T09:31:33.109Z,23.47
2018-06-28T09:32:39.111Z,24.05
2018-06-28T09:33:45.516Z,24.31
2018-06-28T09:34:51.971Z,23.68
2018-06-28T09:35:58.083Z,23.56
2018-06-28T09:37:04.551Z,23.72
2018-06-28T09:38:11.166Z,23.79
2018-06-28T09:39:17.191Z,23.96
2018-06-28T09:40:23.236Z,24.19
2018-06-28T09:41:29.686Z,23.38
2018-06-28T09:42:35.770Z,23.88
2018-06-28T09:43:41.796Z,23.23
2018-06-28T09:44:47.828Z,22.79
2018-06-28T09:45:53.813Z,23.05
2018-06-28T09:47:00.072Z,22.12
2018-06-28T09:48:06.211Z,22.03
2018-06-28T09:49:12.520Z,22.20
2018-06-28T09:50:18.725Z,22.62
2018-06-28T09:51:25.046Z,23.34
2018-06-28T09:52:31.070Z,22.70
2018-06-28T09:53:37.047Z,23.15
2018-06-28T09:54:43.193Z,22.07
2018-06-28T09:55:49.370Z,22.08
2018-06-28T09:56:55.362Z,22.38
2018-06-28T09:58:01.383Z,23.34
2018-06-28T09:59:07.369Z,23.75
2018-06-28T10:00:13.456Z,23.78
2018-06-28T10:01:19.642Z,23.27
2018-06-28T10:02:25.403Z,23.13
2018-06-28T10:03:31.388Z,23.27
2018-06-28T10:04:37.529Z,22.85
2018-06-28T10:05:43.719Z,22.31
2018-06-28T10:06:49.826Z,22.18
2018-06-28T10:07:55.922Z,22.07
2018-06-28T10:09:02.287Z,22.44
2018-06-28T10:10:08.419Z,23.08
2018-06-28T10:11:14.615Z,22.61
2018-06-28T10:12:20.419Z,22.92
2018-06-28T10:13:26.384Z,23.21
2018-06-28T10:14:32.395Z,23.29
2018-06-28T10:15:38.372Z,23.45
2018-06-28T10:16:44.338Z,23.20
2018-06-28T10:17:50.475Z,23.11
2018-06-28T10:18:56.443Z,23.13
2018-06-28T10:20:02.506Z,23.12
2018-06-28T10:21:08.579Z,23.42
2018-06-28T10:22:14.569Z,24.53
2018-06-28T10:23:20.294Z,24.92
2018-06-28T10:24:26.216Z,24.74
2018-06-28T10:25:32.300Z,25.34
2018-06-28T10:26:38.315Z,25.43
2018-06-28T10:27:44.319Z,25.44
2018-06-28T10:28:50.341Z,26.42
2018-06-28T10:29:56.311Z,26.32
2018-06-28T10:31:02.455Z,26.96
2018-06-28T10:32:08.879Z,26.46
2018-06-28T10:33:14.817Z,27.93
2018-06-28T10:34:20.793Z,27.11
2018-06-28T10:35:26.752Z,27.34
2018-06-28T10:36:32.838Z,27.65
2018-06-28T10:37:38.799Z,28.03
2018-06-28T10:38:44.758Z,27.86
2018-06-28T10:39:50.722Z,28.65
2018-06-28T10:40:56.743Z,28.19
2018-06-28T10:42:02.971Z,28.97
2018-06-28T10:43:08.714Z,29.67
2018-06-28T10:44:14.744Z,29.28
2018-06-28T10:45:20.804Z,29.91
2018-06-28T10:46:26.818Z,30.21
2018-06-28T10:47:32.869Z,30.52
2018-06-28T10:48:39.079Z,30.45
2018-06-28T10:49:45.161Z,30.26
2018-06-28T10:50:51.112Z,30.59
2018-06-28T10:51:57.135Z,29.82
2018-06-28T10:53:03.159Z,30.55
2018-06-28T10:54:09.186Z,30.12
2018-06-28T10:55:15.363Z,30.67
2018-06-28T10:56:21.405Z,30.40
2018-06-28T10:57:27.648Z,30.90
2018-06-28T10:58:33.834Z,31.13
2018-06-28T10:59:39.907Z,31.52
2018-06-28T11:00:45.597Z,31.24
2018-06-28T11:01:51.895Z,30.89
2018-06-28T11:02:58.165Z,30.10
2018-06-28T11:04:04.317Z,30.48
2018-06-28T11:05:09.906Z,30.64
2018-06-28T11:06:15.776Z,31.21
2018-06-28T11:07:21.856Z,30.43
2018-06-28T11:08:27.901Z,30.71
2018-06-28T11:09:34.123Z,30.11
2018-06-28T11:10:40.261Z,30.18
2018-06-28T11:11:46.327Z,30.51
2018-06-28T11:12:52.134Z,30.59
2018-06-28T11:13:58.144Z,30.65
2018-06-28T11:15:04.439Z,31.02
2018-06-28T11:16:10.388Z,31.06
2018-06-28T11:17:16.471Z,30.57
2018-06-28T11:18:22.450Z,30.29
2018-06-28T11:19:28.509Z,31.21
2018-06-28T11:20:34.535Z,31.03
2018-06-28T11:21:40.483Z,31.19
2018-06-28T11:22:47.030Z,30.69
2018-06-28T11:23:52.836Z,31.44
2018-06-28T11:24:58.739Z,31.48
2018-06-28T11:26:04.995Z,32.14
2018-06-28T11:27:11.687Z,31.95
2018-06-28T11:28:17.805Z,31.33
2018-06-28T11:29:23.910Z,32.03
2018-06-28T11:30:30.106Z,31.62
2018-06-28T11:31:36.165Z,31.30
2018-06-28T11:32:42.245Z,31.55
2018-06-28T11:33:48.389Z,31.49
2018-06-28T11:34:54.456Z,30.60
2018-06-28T11:36:01.369Z,31.17
2018-06-28T11:37:07.811Z,31.15
2018-06-28T11:38:13.860Z,30.88
2018-06-28T11:39:19.495Z,31.01
2018-06-28T11:40:25.707Z,32.24
2018-06-28T11:41:31.735Z,31.02
2018-06-28T11:42:37.745Z,32.20
2018-06-28T11:43:44.211Z,32.28
2018-06-28T11:44:50.271Z,31.63
2018-06-28T11:45:56.304Z,32.01
2018-06-28T11:47:02.315Z,30.67
2018-06-28T11:48:08.394Z,31.34
2018-06-28T11:49:14.457Z,32.53
2018-06-28T11:50:20.443Z,32.38
2018-06-28T11:51:26.399Z,32.90
2018-06-28T11:52:32.467Z,32.50
2018-06-28T11:53:38.422Z,32.63
2018-06-28T11:54:44.079Z,31.95
2018-06-28T11:55:49.957Z,32.63
2018-06-28T11:56:56.067Z,31.84
2018-06-28T11:58:02.013Z,31.88
2018-06-28T11:59:07.656Z,32.37
2018-06-28T12:00:14.003Z,31.87
2018-06-28T12:01:19.959Z,31.73
2018-06-28T12:02:25.878Z,31.48
2018-06-28T12:03:32.260Z,30.93
2018-06-28T12:04:38.301Z,31.98
2018-06-28T12:05:44.631Z,30.83
2018-06-28T12:06:50.290Z,30.69
2018-06-28T12:07:56.136Z,29.98
2018-06-28T12:09:02.138Z,30.32
2018-06-28T12:10:08.495Z,29.55
2018-06-28T12:11:14.539Z,30.08
2018-06-28T12:12:20.546Z,30.06
2018-06-28T12:13:26.536Z,29.68
2018-06-28T12:14:32.522Z,29.83
2018-06-28T12:15:38.150Z,29.78
2018-06-28T12:16:44.440Z,29.54
2018-06-28T12:17:50.470Z,29.98
2018-06-28T12:18:56.293Z,31.08
2018-06-28T12:20:02.215Z,30.90
2018-06-28T12:21:08.179Z,31.61
2018-06-28T12:22:14.162Z,31.12
2018-06-28T12:23:20.147Z,31.32
2018-06-28T12:24:26.782Z,31.11
2018-06-28T12:25:32.783Z,30.93
2018-06-28T12:26:38.882Z,30.52
2018-06-28T12:27:44.899Z,30.50
2018-06-28T12:28:50.836Z,30.36
2018-06-28T12:29:56.903Z,30.35
2018-06-28T12:31:02.935Z,30.15
2018-06-28T12:32:09.157Z,30.83
2018-06-28T12:33:15.135Z,30.05
2018-06-28T12:34:21.504Z,29.80
2018-06-28T12:35:27.476Z,30.23
2018-06-28T12:36:33.463Z,30.15
2018-06-28T12:37:39.468Z,29.92
2018-06-28T12:38:45.448Z,30.73
2018-06-28T12:39:51.419Z,30.56
2018-06-28T12:40:57.074Z,31.72
2018-06-28T12:42:02.964Z,32.00
2018-06-28T12:43:09.214Z,31.40
2018-06-28T12:44:15.175Z,31.62
2018-06-28T12:45:21.191Z,31.16
2018-06-28T12:47:54.523Z,31.87
2018-06-28T12:49:00.540Z,31.32
2018-06-28T12:50:06.968Z,31.17
2018-06-28T12:51:13.102Z,31.20
2018-06-28T12:52:47.914Z,31.14
2018-06-28T12:53:53.902Z,31.11
2018-06-28T12:54:59.897Z,31.39
2018-06-28T12:56:28.195Z,30.35
2018-06-28T12:57:34.157Z,29.60
2018-06-28T12:58:40.135Z,28.72
2018-06-28T12:59:46.116Z,30.13
2018-06-28T13:00:52.328Z,29.33
2018-06-28T13:01:58.275Z,30.14
2018-06-28T13:03:04.296Z,29.64
2018-06-28T13:04:10.241Z,30.20
2018-06-28T13:05:17.007Z,31.03
2018-06-28T13:06:22.885Z,30.70
2018-06-28T13:07:29.207Z,30.75
2018-06-28T13:08:35.215Z,30.44
2018-06-28T13:09:41.581Z,30.37
2018-06-28T13:10:47.548Z,30.83
2018-06-28T13:11:53.246Z,31.57
2018-06-28T13:12:59.192Z,30.76
2018-06-28T13:14:05.626Z,30.41
2018-06-28T13:15:12.904Z,31.51
2018-06-28T13:16:19.625Z,31.34
2018-06-28T13:17:25.651Z,31.87
2018-06-28T13:18:31.631Z,31.80
2018-06-28T13:19:37.823Z,31.25
2018-06-28T13:20:43.790Z,31.05
2018-06-28T13:21:49.876Z,31.65
2018-06-28T13:22:55.843Z,31.41
2018-06-28T13:24:01.847Z,32.26
2018-06-28T13:25:09.864Z,31.75
2018-06-28T13:26:16.877Z,32.15
2018-06-28T13:27:22.806Z,31.39
2018-06-28T13:28:29.296Z,31.60
2018-06-28T13:29:35.681Z,31.67
2018-06-28T13:30:41.385Z,31.35
2018-06-28T13:31:47.296Z,31.63
2018-06-28T13:32:53.283Z,30.47
2018-06-28T13:33:59.316Z,31.48
2018-06-28T13:35:05.423Z,30.63
2018-06-28T13:36:11.901Z,31.21
2018-06-28T13:37:17.892Z,31.92
2018-06-28T13:38:24.156Z,30.98
2018-06-28T13:39:30.205Z,31.71
2018-06-28T13:40:36.328Z,31.35
2018-06-28T13:41:42.782Z,31.94
2018-06-28T13:42:48.915Z,31.98
2018-06-28T13:43:54.919Z,31.22
2018-06-28T13:45:00.903Z,31.05
2018-06-28T13:46:07.461Z,31.65
2018-06-28T13:47:13.693Z,31.99
2018-06-28T13:48:20.279Z,31.53
2018-06-28T13:49:26.211Z,32.39
2018-06-28T13:50:32.231Z,32.02
2018-06-28T13:51:38.574Z,31.67
2018-06-28T13:52:44.955Z,32.03
2018-06-28T13:53:50.596Z,32.40
2018-06-28T13:54:56.738Z,31.72
2018-06-28T13:56:02.679Z,31.75
2018-06-28T13:57:08.522Z,32.54
2018-06-28T13:58:14.567Z,31.71
2018-06-28T13:59:20.582Z,31.57
2018-06-28T14:00:26.606Z,31.76
2018-06-28T14:01:33.145Z,32.78
2018-06-28T14:02:39.105Z,31.78
2018-06-28T14:03:45.117Z,32.55
2018-06-28T14:04:51.396Z,32.49
2018-06-28T14:05:57.483Z,32.34
2018-06-28T14:07:03.791Z,31.50
2018-06-28T14:08:09.929Z,32.52
2018-06-28T14:09:15.944Z,32.87
2018-06-28T14:10:22.134Z,32.23
2018-06-28T14:11:28.149Z,32.89
2018-06-28T14:12:34.197Z,31.87
2018-06-28T14:13:40.248Z,32.37
2018-06-28T14:14:46.250Z,32.43
2018-06-28T14:15:52.243Z,32.13